createdAt,value
2022-12-18T14:21:43.533Z,13.24
2022-12-18T14:26:26.698Z,16.79
2022-12-18T14:31:09.777Z,12.25
2022-12-18T14:41:07.343Z,-2.73
2022-12-18T14:45:50.509Z,-3.75
2022-12-18T14:50:35.288Z,-4.32
2022-12-18T14:55:19.304Z,-4.69
2022-12-18T15:00:03.443Z,-5
2022-12-18T15:10:09.987Z,-5.29
2022-12-18T15:14:56.455Z,-5.39
2022-12-18T15:19:39.575Z,-5.41
2022-12-18T15:24:22.717Z,-5.42
2022-12-18T15:29:09.107Z,-5.45
2022-12-18T15:33:58.286Z,-5.49
2022-12-18T15:38:41.413Z,-5.47
2022-12-18T15:43:24.496Z,-5.57
2022-12-18T15:48:07.580Z,-5.61
2022-12-18T15:52:50.924Z,-5.66
2022-12-18T15:57:34.095Z,-5.66
2022-12-18T16:02:20.015Z,-5.82
2022-12-18T16:07:22.888Z,-5.89
2022-12-18T16:12:13.854Z,-5.95
2022-12-18T16:33:28.154Z,-5.99
2022-12-18T16:38:12.394Z,-6.09
2022-12-18T16:42:55.709Z,-6.06
2022-12-18T16:47:39.197Z,-6.09
2022-12-18T16:52:23.176Z,-6.07
2022-12-18T16:57:07.175Z,-6.12
2022-12-18T17:01:52.228Z,-6.19
2022-12-18T17:06:36.287Z,-6.22
2022-12-18T17:11:22.241Z,-6.25
2022-12-18T17:16:08.315Z,-6.34
2022-12-18T17:20:52.728Z,-6.4
2022-12-18T17:25:38.981Z,-6.42
2022-12-18T17:30:22.626Z,-6.44
2022-12-18T17:35:07.424Z,-6.45
2022-12-18T17:39:50.704Z,-6.48
2022-12-18T17:44:35.277Z,-6.51
2022-12-18T17:49:18.583Z,-6.5
2022-12-18T17:54:01.720Z,-6.51
2022-12-18T17:58:45.198Z,-6.53
2022-12-18T18:03:28.718Z,-6.55
2022-12-18T18:08:12.372Z,-6.57
2022-12-18T18:12:57.216Z,-6.59
2022-12-18T18:17:40.324Z,-6.59
2022-12-18T18:22:30.731Z,-6.64
2022-12-18T18:27:14.519Z,-6.67
2022-12-18T18:31:58.191Z,-6.72
2022-12-18T18:36:41.671Z,-6.76
2022-12-18T18:41:24.822Z,-6.79
2022-12-18T18:46:09.213Z,-6.88
2022-12-18T18:50:56.793Z,-6.9
2022-12-18T18:55:40.374Z,-6.92
2022-12-18T19:00:23.679Z,-6.98
2022-12-18T19:05:08.275Z,-7.06
2022-12-18T19:09:51.800Z,-7.07
2022-12-18T19:14:36.786Z,-7.08
2022-12-18T19:19:22.922Z,-7.13
2022-12-18T19:24:06.221Z,-7.12
2022-12-18T19:28:52.081Z,-7.14
2022-12-18T19:33:42.994Z,-7.22
2022-12-18T19:38:27.763Z,-7.22
2022-12-18T19:43:11.832Z,-7.27
2022-12-18T19:47:56.665Z,-7.28
2022-12-18T19:52:46.547Z,-7.29
2022-12-18T19:57:32.336Z,-7.32
2022-12-18T20:02:15.622Z,-7.34
2022-12-18T20:07:00.926Z,-7.42
2022-12-18T20:11:44.600Z,-7.48
2022-12-18T20:16:30.877Z,-7.52
2022-12-18T20:21:17.189Z,-7.53
2022-12-18T20:26:00.656Z,-7.54
2022-12-18T20:30:46.277Z,-7.57
2022-12-18T20:35:29.488Z,-7.55
2022-12-18T20:40:13.722Z,-7.53
2022-12-18T20:44:57.212Z,-7.55
2022-12-18T20:49:42.692Z,-7.61
2022-12-18T20:54:28.923Z,-7.59
2022-12-18T20:59:12.019Z,-7.65
2022-12-18T21:03:55.383Z,-7.68
2022-12-18T21:08:38.705Z,-7.67
2022-12-18T21:13:21.729Z,-7.65
2022-12-18T21:18:04.957Z,-7.7
2022-12-18T21:22:48.597Z,-7.72
2022-12-18T21:27:32.911Z,-7.73
2022-12-18T21:32:16.197Z,-7.71
2022-12-18T21:37:00.361Z,-7.62
2022-12-18T21:41:53.273Z,-7.53
2022-12-18T21:46:39.314Z,-7.41
2022-12-18T21:51:22.502Z,-7.31
2022-12-18T21:56:05.498Z,-7.19
2022-12-18T22:00:48.904Z,-7.11
2022-12-18T22:05:32.054Z,-7.08
2022-12-18T22:10:15.543Z,-7.07
2022-12-18T22:14:58.562Z,-7.02
2022-12-18T22:19:43.325Z,-6.97
2022-12-18T22:24:26.902Z,-6.97
2022-12-18T22:29:09.852Z,-7.02
2022-12-18T22:33:52.841Z,-7.08
2022-12-18T22:38:35.837Z,-7.17
2022-12-18T22:43:18.858Z,-7.28
2022-12-18T22:48:01.878Z,-7.37
2022-12-18T22:52:44.869Z,-7.42
2022-12-18T22:57:27.905Z,-7.45
2022-12-18T23:02:10.947Z,-7.52
2022-12-18T23:06:54.320Z,-7.6
2022-12-18T23:11:37.327Z,-7.63
2022-12-18T23:16:20.358Z,-7.68
2022-12-18T23:21:03.604Z,-7.75
2022-12-18T23:25:48.135Z,-7.75
2022-12-18T23:30:31.438Z,-7.75
2022-12-18T23:35:15.677Z,-7.73
2022-12-18T23:39:58.967Z,-7.76
2022-12-18T23:44:41.914Z,-7.86
2022-12-18T23:49:24.856Z,-7.91
2022-12-18T23:54:07.954Z,-8.01
2022-12-18T23:58:53.427Z,-8.05
